Time;durP1;ratioP1;P1;durP2;ratioP2;P2;SDS_P1;SDS_P2;PMS_P1;PMS_P2;Temp;Humidity;BMP_temperature;BMP_pressure;BME280_temperature;BME280_humidity;BME280_pressure;Samples;Min_cycle;Max_cycle;Signal;HPM_P1;HPM_P2
2022/05/10 00:01:40;;;;;;;22.80;10.10;;;;;;;17.31;45.61;102001.00;5226950;28;20431;-49
2022/05/10 00:04:14;;;;;;;19.15;9.15;;;;;;;17.34;45.51;102000.66;5227301;28;20779;-45
2022/05/10 00:06:49;;;;;;;21.83;8.93;;;;;;;17.37;45.50;102005.66;5223975;28;20431;-47
2022/05/10 00:09:29;;;;;;;20.30;9.77;;;;;;;17.40;45.44;102001.84;5226092;28;20473;-48
2022/05/10 00:12:02;;;;;;;19.92;8.55;;;;;;;17.28;45.38;101970.16;5222464;28;20423;-46
2022/05/10 00:14:34;;;;;;;20.05;8.75;;;;;;;17.46;45.21;101987.81;5222496;28;20439;-45
2022/05/10 00:17:08;;;;;;;21.95;8.20;;;;;;;17.05;45.12;101916.56;5227090;28;20764;-48
2022/05/10 00:19:41;;;;;;;22.77;7.90;;;;;;;17.49;45.10;101972.28;5224475;28;20424;-48
2022/05/10 00:22:13;;;;;;;17.75;8.23;;;;;;;17.50;45.09;101979.31;5225343;28;20423;-44
2022/05/10 00:24:47;;;;;;;18.97;8.07;;;;;;;17.51;44.99;101975.63;5227114;28;20514;-49
2022/05/10 00:27:20;;;;;;;20.15;8.52;;;;;;;17.44;44.84;101958.63;5213755;28;20506;-44
2022/05/10 00:29:52;;;;;;;19.63;8.70;;;;;;;17.40;44.74;101954.59;5219261;28;20792;-44
2022/05/10 00:32:29;;;;;;;18.98;8.65;;;;;;;17.54;44.81;101969.13;5223191;28;20791;-49
2022/05/10 00:35:02;;;;;;;19.73;9.07;;;;;;;17.56;44.71;101969.81;5225330;28;20403;-46
2022/05/10 00:37:34;;;;;;;18.17;9.05;;;;;;;17.54;44.72;101953.09;5221112;28;20465;-48
2022/05/10 00:40:10;;;;;;;20.27;9.15;;;;;;;17.59;44.64;101961.47;5212133;28;20958;-44
2022/05/10 00:42:53;;;;;;;16.17;8.77;;;;;;;17.47;44.77;101942.25;5223038;28;20415;-48
2022/05/10 00:45:42;;;;;;;18.27;8.32;;;;;;;16.97;44.59;101865.88;5226968;28;20457;-48
2022/05/10 00:48:23;;;;;;;24.63;8.13;;;;;;;17.54;44.57;101946.94;5226345;28;20518;-48
2022/05/10 00:51:02;;;;;;;17.15;8.55;;;;;;;17.63;44.40;101957.44;5225177;28;20411;-46
2022/05/10 00:53:52;;;;;;;27.75;8.48;;;;;;;17.60;44.55;101951.59;5221007;28;20411;-46
2022/05/10 00:56:35;;;;;;;19.15;8.68;;;;;;;17.65;44.52;101966.13;5223467;28;20962;-45
2022/05/10 00:59:17;;;;;;;21.77;8.18;;;;;;;17.62;44.39;101949.56;5223198;28;20420;-47
2022/05/10 01:01:55;;;;;;;18.58;8.25;;;;;;;17.68;44.24;101948.91;5226482;28;20899;-47
2022/05/10 01:04:35;;;;;;;21.70;9.40;;;;;;;17.49;44.23;101918.03;5225270;28;20423;-49
2022/05/10 01:07:14;;;;;;;18.75;8.07;;;;;;;17.66;44.19;101946.41;5224521;28;20470;-44
2022/05/10 01:09:51;;;;;;;24.50;8.77;;;;;;;17.61;44.26;101921.22;5227761;28;20924;-45
2022/05/10 01:12:34;;;;;;;18.23;7.70;;;;;;;17.70;44.24;101926.38;5226347;28;20659;-49
2022/05/10 01:15:15;;;;;;;19.67;7.95;;;;;;;17.74;44.22;101927.72;5220781;28;20415;-44
2022/05/10 01:17:48;;;;;;;18.52;8.75;;;;;;;17.66;44.13;101921.53;5225887;28;20422;-44
2022/05/10 01:20:35;;;;;;;16.85;7.97;;;;;;;17.71;44.21;101921.84;5226579;28;20435;-43
2022/05/10 01:23:40;;;;;;;16.73;7.73;;;;;;;17.80;44.12;101917.34;5222298;28;20463;-43
2022/05/10 01:26:24;;;;;;;17.85;7.55;;;;;;;17.82;43.98;101924.19;5223536;28;20953;-46
2022/05/10 01:29:03;;;;;;;20.02;6.85;;;;;;;17.74;43.88;101897.47;5222539;28;20519;-46
2022/05/10 01:31:45;;;;;;;23.60;7.05;;;;;;;17.82;43.87;101908.16;5223781;28;20458;-45
2022/05/10 01:34:21;;;;;;;16.40;7.20;;;;;;;17.81;43.89;101903.84;5224069;28;20926;-43
2022/05/10 01:37:00;;;;;;;18.05;7.53;;;;;;;17.81;43.87;101890.47;5228047;28;20413;-45
2022/05/10 01:39:38;;;;;;;15.98;7.32;;;;;;;17.70;43.83;101872.09;5224181;28;20756;-44
2022/05/10 01:42:21;;;;;;;15.95;7.35;;;;;;;17.75;43.77;101885.78;5217745;28;20404;-44
2022/05/10 01:45:01;;;;;;;16.88;7.30;;;;;;;17.79;43.77;101884.47;5220417;28;20489;-48
2022/05/10 01:47:40;;;;;;;16.10;7.63;;;;;;;17.79;43.85;101872.94;5223263;28;20412;-44
2022/05/10 01:50:19;;;;;;;17.00;8.07;;;;;;;17.86;43.72;101888.09;5225371;28;20935;-45
2022/05/10 01:53:04;;;;;;;17.50;8.38;;;;;;;17.88;43.78;101878.09;5223515;28;20427;-46
2022/05/10 01:55:39;;;;;;;16.27;7.55;;;;;;;17.86;43.69;101866.72;5221033;28;20947;-47
2022/05/10 02:02:00;;;;;;;15.20;7.75;;;;;;;17.88;43.66;101867.41;5223696;28;20404;-45
2022/05/10 02:04:38;;;;;;;16.33;8.52;;;;;;;17.91;43.78;101864.38;5224775;28;20912;-47
2022/05/10 02:07:17;;;;;;;21.30;8.20;;;;;;;17.93;43.73;101856.16;5223000;28;20543;-47
2022/05/10 02:09:58;;;;;;;18.30;8.30;;;;;;;17.92;43.67;101852.66;5225249;28;20453;-45
2022/05/10 02:12:38;;;;;;;19.52;8.10;;;;;;;17.73;43.62;101842.38;5225495;28;20499;-44
2022/05/10 02:15:16;;;;;;;14.77;7.47;;;;;;;17.94;43.52;101850.66;5224989;28;20481;-45
2022/05/10 02:17:56;;;;;;;15.90;7.15;;;;;;;17.97;43.58;101850.31;5222946;28;20422;-47
2022/05/10 02:20:38;;;;;;;14.55;6.90;;;;;;;17.97;43.54;101853.00;5222219;28;20431;-48
2022/05/10 02:23:14;;;;;;;16.77;7.43;;;;;;;18.00;43.45;101842.97;5224431;28;20502;-48
2022/05/10 02:25:53;;;;;;;14.38;7.32;;;;;;;17.87;43.60;101825.66;5202743;28;20437;-46
2022/05/10 02:28:45;;;;;;;16.58;8.07;;;;;;;17.98;43.59;101838.63;5220306;28;20549;-45
2022/05/10 02:31:23;;;;;;;22.80;8.17;;;;;;;17.96;43.61;101832.63;5195185;28;20421;-44
2022/05/10 02:33:56;;;;;;;18.55;7.88;;;;;;;18.01;43.50;101836.59;5224852;28;20752;-45
2022/05/10 02:36:29;;;;;;;18.05;7.80;;;;;;;18.00;43.68;101829.59;5224711;28;20410;-45
2022/05/10 02:39:01;;;;;;;16.40;7.93;;;;;;;18.01;43.65;101831.25;5219939;28;21483;-48
2022/05/10 02:41:34;;;;;;;15.07;8.10;;;;;;;17.84;43.61;101793.94;5221099;28;20524;-42
2022/05/10 02:44:06;;;;;;;13.75;8.05;;;;;;;18.04;43.54;101822.91;5224331;28;20903;-46
2022/05/10 02:46:39;;;;;;;16.08;7.88;;;;;;;17.94;43.56;101810.59;5227438;28;20719;-46
2022/05/10 02:49:13;;;;;;;17.08;7.25;;;;;;;18.02;43.64;101816.88;5229165;28;20412;-45
2022/05/10 02:51:45;;;;;;;17.43;7.60;;;;;;;17.97;43.51;101815.56;5228856;28;20957;-47
2022/05/10 02:54:18;;;;;;;15.90;7.85;;;;;;;18.06;43.63;101818.22;5228025;28;20416;-45
2022/05/10 02:56:51;;;;;;;15.07;7.30;;;;;;;17.79;43.55;101772.25;5227739;28;20487;-45
2022/05/10 02:59:28;;;;;;;13.43;7.07;;;;;;;18.07;43.54;101809.19;5229701;28;20410;-44
2022/05/10 03:02:10;;;;;;;17.43;8.63;;;;;;;17.98;43.74;101792.34;5226266;28;20488;-47
2022/05/10 03:04:51;;;;;;;14.77;8.48;;;;;;;17.90;43.58;101766.50;5224505;28;20455;-45
2022/05/10 03:07:24;;;;;;;18.73;8.23;;;;;;;18.04;43.48;101793.50;5226240;28;20847;-46
2022/05/10 03:09:57;;;;;;;15.75;8.52;;;;;;;17.88;43.44;101752.47;5229391;28;20914;-48
2022/05/10 03:12:30;;;;;;;16.58;8.10;;;;;;;18.11;43.35;101789.94;5227470;28;20457;-47
2022/05/10 03:15:02;;;;;;;15.48;8.45;;;;;;;18.11;43.62;101786.44;5202981;28;20952;-49
2022/05/10 03:17:35;;;;;;;12.90;7.40;;;;;;;18.03;43.51;101773.13;5219635;28;20426;-44
2022/05/10 03:20:10;;;;;;;21.58;8.57;;;;;;;18.09;43.59;101780.44;5225869;28;20514;-44
2022/05/10 03:22:43;;;;;;;15.95;7.53;;;;;;;18.16;43.64;101786.75;5229408;28;20430;-49
2022/05/10 03:25:15;;;;;;;13.45;8.10;;;;;;;18.20;43.62;101786.19;5227306;28;20427;-48
2022/05/10 03:27:49;;;;;;;18.70;8.65;;;;;;;17.70;43.57;101695.78;5226419;28;20400;-48
2022/05/10 03:30:22;;;;;;;18.30;7.50;;;;;;;18.23;43.51;101776.16;5226904;28;20445;-45
2022/05/10 03:32:55;;;;;;;13.95;8.05;;;;;;;18.21;43.53;101773.69;5228003;28;20436;-44
2022/05/10 03:35:29;;;;;;;13.73;6.90;;;;;;;18.22;43.73;101772.66;5229994;28;20888;-43
2022/05/10 03:38:02;;;;;;;15.17;8.33;;;;;;;18.26;43.54;101773.97;5226186;28;20540;-45
2022/05/10 03:40:34;;;;;;;16.98;8.23;;;;;;;18.26;43.55;101765.13;5224450;28;20440;-46
2022/05/10 03:43:09;;;;;;;14.23;8.20;;;;;;;18.22;43.79;101761.97;5217397;28;20420;-45
2022/05/10 03:45:42;;;;;;;18.45;8.10;;;;;;;18.28;43.68;101771.13;5227401;28;20424;-49
2022/05/10 03:48:14;;;;;;;17.10;8.18;;;;;;;18.30;43.55;101774.44;5227044;28;20415;-45
2022/05/10 03:50:48;;;;;;;16.27;8.32;;;;;;;18.27;43.67;101756.94;5210760;28;20451;-48
2022/05/10 03:53:21;;;;;;;14.57;8.70;;;;;;;17.97;43.74;101738.06;5226205;28;20432;-44
2022/05/10 03:55:53;;;;;;;16.77;8.25;;;;;;;18.29;43.77;101765.59;5222775;28;20439;-46
2022/05/10 03:58:25;;;;;;;20.33;8.77;;;;;;;17.61;43.97;101646.06;5227384;28;20415;-45
2022/05/10 04:00:58;;;;;;;18.13;8.68;;;;;;;18.32;43.80;101767.91;5224892;28;20411;-45
2022/05/10 04:03:30;;;;;;;13.85;8.10;;;;;;;18.33;43.83;101763.38;5209599;28;20421;-46
2022/05/10 04:06:07;;;;;;;18.55;8.40;;;;;;;18.35;43.82;101764.06;5222670;28;20458;-45
2022/05/10 04:08:40;;;;;;;14.02;8.48;;;;;;;18.38;43.80;101766.38;5224319;28;20416;-44
2022/05/10 04:11:14;;;;;;;20.02;9.35;;;;;;;18.11;43.89;101711.56;5228035;28;20493;-44
2022/05/10 04:13:46;;;;;;;21.25;9.30;;;;;;;18.42;43.89;101767.66;5225996;28;20550;-43
2022/05/10 04:16:19;;;;;;;15.80;8.20;;;;;;;18.39;43.92;101744.78;5227684;28;20495;-46
2022/05/10 04:18:51;;;;;;;16.60;8.25;;;;;;;18.40;44.10;101785.75;5228858;28;20408;-46
2022/05/10 04:21:25;;;;;;;20.75;8.00;;;;;;;18.47;43.98;101745.75;5225542;28;21366;-44
2022/05/10 04:23:57;;;;;;;17.20;8.05;;;;;;;18.49;43.84;101749.03;5216893;28;20515;-44
2022/05/10 04:26:30;;;;;;;14.38;8.98;;;;;;;18.50;43.91;101738.19;5227002;28;20439;-46
2022/05/10 04:29:02;;;;;;;20.95;8.48;;;;;;;18.22;43.73;101695.13;5224221;28;20423;-47
2022/05/10 04:31:35;;;;;;;21.63;8.85;;;;;;;18.51;43.81;101723.78;5222539;28;20410;-48
2022/05/10 04:34:07;;;;;;;21.52;8.77;;;;;;;18.57;43.83;101728.41;5226301;28;20432;-49
2022/05/10 04:36:42;;;;;;;16.47;8.57;;;;;;;18.55;43.77;101725.13;5225171;28;20419;-47
2022/05/10 04:39:15;;;;;;;18.08;7.93;;;;;;;18.58;43.82;101719.41;5221333;28;20952;-47
2022/05/10 04:41:50;;;;;;;18.15;7.75;;;;;;;18.70;43.81;101727.78;5230066;28;20424;-49
2022/05/10 04:44:23;;;;;;;27.20;9.05;;;;;;;18.68;43.78;101721.81;5227088;28;20420;-47
2022/05/10 04:46:55;;;;;;;20.02;8.43;;;;;;;18.72;43.76;101724.97;5228898;28;20399;-44
2022/05/10 04:49:28;;;;;;;14.52;8.30;;;;;;;18.73;43.75;101723.97;5231100;28;20502;-47
2022/05/10 04:52:02;;;;;;;15.88;7.82;;;;;;;18.79;43.61;101713.34;5227002;28;20415;-49
2022/05/10 04:54:35;;;;;;;18.08;7.60;;;;;;;18.82;43.59;101718.34;5224722;28;20494;-45
2022/05/10 04:57:07;;;;;;;18.58;8.48;;;;;;;18.76;43.43;101703.00;5215930;28;20901;-45
2022/05/10 04:59:40;;;;;;;16.38;7.95;;;;;;;18.93;43.52;101713.56;5216227;28;20416;-46
2022/05/10 05:02:13;;;;;;;17.45;8.15;;;;;;;18.64;43.46;101666.97;5228520;28;20812;-44
2022/05/10 05:04:45;;;;;;;16.42;8.05;;;;;;;18.96;43.33;101707.84;5228404;28;20411;-46
2022/05/10 05:07:19;;;;;;;16.60;7.95;;;;;;;19.03;43.34;101720.31;5228771;28;20420;-45
2022/05/10 05:09:54;;;;;;;16.93;7.53;;;;;;;18.97;43.37;101702.31;5229932;28;20415;-44
2022/05/10 05:12:26;;;;;;;16.08;7.68;;;;;;;19.09;43.12;101718.75;5228173;28;20419;-47
2022/05/10 05:15:03;;;;;;;16.60;8.00;;;;;;;19.12;43.14;101715.69;5228189;28;20491;-46
2022/05/10 05:17:38;;;;;;;20.27;9.02;;;;;;;19.00;43.08;101701.09;5198022;28;20839;-47
2022/05/10 05:20:12;;;;;;;20.85;7.93;;;;;;;19.15;43.16;101715.34;5228230;28;20418;-46
2022/05/10 05:22:46;;;;;;;22.52;7.78;;;;;;;19.11;43.13;101711.38;5226606;28;20431;-49
2022/05/10 05:25:18;;;;;;;19.77;8.88;;;;;;;19.16;43.08;101714.31;5223331;28;20450;-44
2022/05/10 05:27:51;;;;;;;17.40;9.17;;;;;;;19.15;43.02;101717.19;5228992;28;20416;-45
2022/05/10 05:30:23;;;;;;;18.17;9.17;;;;;;;19.21;43.04;101732.50;5214793;28;20487;-45
2022/05/10 05:32:56;;;;;;;21.17;9.07;;;;;;;19.13;42.70;101699.44;5226336;28;20657;-47
2022/05/10 05:35:29;;;;;;;20.05;8.40;;;;;;;19.29;42.94;101719.00;5223186;28;20396;-47
2022/05/10 05:38:03;;;;;;;23.00;10.20;;;;;;;19.30;42.98;101716.16;5225329;28;20419;-47
2022/05/10 05:40:36;;;;;;;26.95;9.60;;;;;;;19.31;42.77;101723.16;5224585;28;20447;-48
2022/05/10 05:43:16;;;;;;;34.40;10.38;;;;;;;19.33;42.95;101709.59;5225941;28;20411;-46
2022/05/10 05:45:50;;;;;;;25.58;9.90;;;;;;;19.30;42.85;101693.91;5212148;28;20517;-49
2022/05/10 05:48:23;;;;;;;27.25;10.70;;;;;;;19.38;43.02;101714.38;5228417;28;20407;-45
2022/05/10 05:50:55;;;;;;;21.77;9.95;;;;;;;19.29;43.22;101690.41;5225855;28;20932;-46
2022/05/10 05:53:29;;;;;;;25.15;9.95;;;;;;;19.27;43.10;101688.91;5215163;28;20463;-50
2022/05/10 05:56:04;;;;;;;27.00;9.93;;;;;;;19.40;42.96;101704.31;5222554;28;20473;-50
2022/05/10 05:58:36;;;;;;;27.92;10.25;;;;;;;19.44;42.95;101695.72;5219960;28;20458;-49
2022/05/10 06:01:14;;;;;;;30.00;10.60;;;;;;;19.39;42.92;101681.22;5220922;28;20485;-48
2022/05/10 06:03:47;;;;;;;26.80;9.52;;;;;;;19.46;42.81;101682.97;5226997;28;20494;-45
2022/05/10 06:06:19;;;;;;;25.67;10.43;;;;;;;19.54;42.87;101690.06;5226020;28;20423;-47
2022/05/10 06:08:53;;;;;;;23.48;9.35;;;;;;;19.57;42.88;101681.63;5201399;28;20435;-48
2022/05/10 06:11:25;;;;;;;28.05;9.80;;;;;;;19.60;42.81;101673.22;5209350;28;20933;-48
2022/05/10 06:13:58;;;;;;;27.80;10.23;;;;;;;19.63;42.83;101675.53;5210649;28;21658;-50
2022/05/10 06:16:30;;;;;;;21.23;9.35;;;;;;;19.65;42.74;101678.88;5216032;28;20423;-50
2022/05/10 06:19:03;;;;;;;27.88;10.50;;;;;;;19.62;42.67;101663.16;5224069;28;20649;-48
2022/05/10 06:21:35;;;;;;;28.07;10.53;;;;;;;19.59;42.72;101648.28;5208103;28;20585;-51
2022/05/10 06:24:11;;;;;;;23.00;10.33;;;;;;;19.75;42.47;101676.72;5220373;28;20492;-48
2022/05/10 06:26:44;;;;;;;29.02;10.70;;;;;;;19.84;42.50;101674.75;5221041;28;20431;-49
2022/05/10 06:29:17;;;;;;;22.70;10.20;;;;;;;19.91;42.38;101666.78;5219092;28;20465;-48
2022/05/10 06:31:50;;;;;;;25.20;10.68;;;;;;;19.89;42.44;101666.16;5225771;28;20523;-48
2022/05/10 06:34:22;;;;;;;22.77;11.25;;;;;;;19.85;42.46;101655.00;5226559;28;20522;-49
2022/05/10 06:36:55;;;;;;;34.00;11.52;;;;;;;20.00;42.35;101679.03;5225716;28;20419;-49
2022/05/10 06:39:32;;;;;;;26.85;11.05;;;;;;;19.94;42.40;101658.34;5223028;28;20510;-47
2022/05/10 06:42:08;;;;;;;26.58;11.57;;;;;;;20.05;42.50;101676.63;5221938;28;20415;-43
2022/05/10 06:44:40;;;;;;;27.50;10.98;;;;;;;19.88;42.33;101638.53;5219386;28;21294;-47
2022/05/10 06:47:13;;;;;;;26.73;11.27;;;;;;;20.02;42.59;101652.88;5225589;28;20497;-47
2022/05/10 06:49:45;;;;;;;24.92;10.93;;;;;;;20.02;42.45;101639.47;5222217;28;20412;-48
2022/05/10 06:52:18;;;;;;;23.73;10.90;;;;;;;20.07;42.46;101637.06;5224129;28;20418;-50
2022/05/10 06:54:52;;;;;;;25.88;11.40;;;;;;;20.14;42.34;101642.47;5222005;28;20424;-48
2022/05/10 06:57:25;;;;;;;22.73;10.93;;;;;;;20.15;42.38;101628.84;5225259;28;20427;-46
2022/05/10 06:59:58;;;;;;;24.15;11.05;;;;;;;20.17;42.41;101629.50;5224542;28;20836;-46
2022/05/10 07:02:30;;;;;;;27.30;10.52;;;;;;;20.23;42.37;101634.09;5224059;28;20474;-50
2022/05/10 07:05:03;;;;;;;26.90;10.93;;;;;;;20.31;42.28;101621.53;5224234;28;20904;-47
2022/05/10 07:07:35;;;;;;;31.45;11.98;;;;;;;20.25;42.22;101613.28;5218991;28;20937;-50
2022/05/10 07:10:11;;;;;;;20.23;9.95;;;;;;;20.30;42.27;101598.44;5214791;28;20488;-49
2022/05/10 07:12:45;;;;;;;21.03;9.93;;;;;;;20.40;42.24;101605.09;5217594;28;20428;-49
2022/05/10 07:15:20;;;;;;;20.60;9.82;;;;;;;20.36;42.18;101585.06;5220536;28;20474;-51
2022/05/10 07:17:53;;;;;;;24.65;9.73;;;;;;;20.56;42.17;101597.78;5221393;28;20506;-49
2022/05/10 07:20:26;;;;;;;23.80;10.15;;;;;;;20.73;41.84;101620.63;5225107;28;20934;-49
2022/05/10 07:22:58;;;;;;;24.90;10.13;;;;;;;20.60;42.16;101597.22;5210781;28;20437;-47
2022/05/10 07:25:33;;;;;;;23.42;10.75;;;;;;;20.85;41.97;101612.84;5220220;28;20403;-47
2022/05/10 07:28:07;;;;;;;19.75;10.25;;;;;;;20.91;41.94;101617.41;5219127;28;20437;-49
2022/05/10 07:30:40;;;;;;;20.42;10.05;;;;;;;20.93;41.78;101596.56;5219080;28;20494;-52
2022/05/10 07:33:13;;;;;;;31.10;10.37;;;;;;;20.93;42.05;101594.72;5225572;28;20896;-48
2022/05/10 07:38:35;;;;;;;21.27;9.40;;;;;;;21.12;41.70;101603.88;5220663;28;20466;-50
2022/05/10 07:41:11;;;;;;;21.60;9.00;;;;;;;21.18;41.84;101608.44;5224319;28;20465;-49
2022/05/10 07:43:45;;;;;;;22.75;10.00;;;;;;;21.25;41.57;101602.28;5224093;28;20936;-47
2022/05/10 07:46:18;;;;;;;19.35;8.90;;;;;;;21.38;41.56;101602.34;5220636;28;20514;-49
2022/05/10 07:48:51;;;;;;;21.83;9.17;;;;;;;21.59;41.40;101607.56;5224439;28;20464;-52
2022/05/10 07:51:24;;;;;;;22.65;9.93;;;;;;;21.55;41.38;101574.03;5222475;28;20484;-48
2022/05/10 07:53:57;;;;;;;22.17;9.68;;;;;;;21.93;41.06;101586.91;5218584;28;20531;-51
2022/05/10 07:56:30;;;;;;;19.80;9.98;;;;;;;22.34;40.71;101596.63;5192099;28;20426;-46
2022/05/10 07:59:03;;;;;;;21.80;9.10;;;;;;;22.77;40.53;101586.19;5221866;28;20455;-47
2022/05/10 08:01:36;;;;;;;18.23;9.05;;;;;;;22.93;40.25;101562.50;5215852;28;20419;-47
2022/05/10 08:04:09;;;;;;;16.65;8.40;;;;;;;23.29;39.89;101588.03;5219725;28;20426;-53
2022/05/10 08:06:41;;;;;;;22.73;9.25;;;;;;;23.38;39.78;101584.91;5218486;28;20434;-48
2022/05/10 08:09:14;;;;;;;19.52;8.55;;;;;;;23.54;39.58;101591.63;5219402;28;20514;-47
2022/05/10 08:11:48;;;;;;;15.60;8.23;;;;;;;23.60;39.55;101584.53;5220972;28;20518;-49
2022/05/10 08:14:22;;;;;;;19.65;8.18;;;;;;;23.47;39.61;101553.94;5217000;28;20593;-48
2022/05/10 08:16:55;;;;;;;20.27;7.75;;;;;;;23.45;39.51;101572.19;5219007;28;20415;-54
2022/05/10 08:19:27;;;;;;;20.55;8.05;;;;;;;23.36;39.65;101568.09;5210015;28;20996;-56
2022/05/10 08:22:00;;;;;;;15.50;6.87;;;;;;;23.43;39.39;101595.84;5207137;28;20423;-49
2022/05/10 08:24:33;;;;;;;21.10;7.22;;;;;;;23.53;39.40;101584.56;5202024;28;20458;-47
2022/05/10 08:27:07;;;;;;;17.90;7.45;;;;;;;23.75;39.08;101587.75;5219880;28;20411;-48
2022/05/10 08:29:40;;;;;;;16.67;7.00;;;;;;;23.96;38.94;101577.66;5219711;28;20882;-46
2022/05/10 08:32:13;;;;;;;16.02;7.32;;;;;;;24.01;38.77;101575.94;5195623;28;20440;-49
2022/05/10 08:34:45;;;;;;;19.88;7.80;;;;;;;24.09;38.73;101580.22;5211216;28;20502;-45
2022/05/10 08:37:18;;;;;;;16.90;6.97;;;;;;;23.60;38.90;101479.34;5218531;28;20736;-48
2022/05/10 08:39:51;;;;;;;16.52;6.43;;;;;;;24.28;38.46;101579.22;5193150;28;20463;-48
2022/05/10 08:42:29;;;;;;;21.88;6.40;;;;;;;24.32;38.57;101577.72;5184159;28;20418;-48
2022/05/10 08:45:06;;;;;;;14.77;6.57;;;;;;;24.42;38.41;101576.41;5217659;28;21062;-48
2022/05/10 08:47:41;;;;;;;17.00;6.55;;;;;;;24.47;38.39;101581.97;5214251;28;20461;-47
2022/05/10 08:50:17;;;;;;;14.20;6.15;;;;;;;24.61;38.24;101592.38;5218526;28;20544;-50
2022/05/10 08:52:52;;;;;;;13.87;6.03;;;;;;;24.79;38.11;101582.66;5214574;28;20472;-50
2022/05/10 08:55:31;;;;;;;15.00;5.85;;;;;;;24.95;37.83;101575.78;5219055;28;20898;-49
2022/05/10 08:58:12;;;;;;;18.80;5.53;;;;;;;25.07;37.81;101573.97;5220722;28;20423;-49
2022/05/10 09:00:50;;;;;;;12.98;5.68;;;;;;;24.74;37.79;101521.19;5213765;28;20459;-51
2022/05/10 09:03:38;;;;;;;15.73;5.45;;;;;;;25.22;37.60;101573.59;5218646;28;20436;-50
2022/05/10 09:06:27;;;;;;;11.75;5.10;;;;;;;25.32;37.33;101586.56;5215025;28;20440;-52
2022/05/10 09:09:24;;;;;;;14.57;5.33;;;;;;;25.48;37.42;101577.78;5208743;28;20408;-51
2022/05/10 09:12:09;;;;;;;15.40;5.32;;;;;;;25.66;37.20;101588.53;5216783;28;20408;-51
2022/05/10 09:14:51;;;;;;;11.33;4.50;;;;;;;25.74;37.02;101590.09;5193798;28;20781;-51
2022/05/10 09:17:26;;;;;;;10.35;4.25;;;;;;;25.72;36.97;101589.50;5201112;28;20467;-50
2022/05/10 09:20:00;;;;;;;11.40;4.20;;;;;;;25.14;36.97;101509.88;5187592;28;20425;-50
2022/05/10 09:22:45;;;;;;;9.40;4.28;;;;;;;25.77;36.77;101585.03;5202748;28;20441;-51
2022/05/10 09:25:33;;;;;;;9.23;3.85;;;;;;;25.83;36.71;101577.06;5194837;28;20426;-51
2022/05/10 09:28:20;;;;;;;7.93;3.70;;;;;;;25.85;36.59;101583.06;5195476;28;20434;-50
2022/05/10 09:36:34;;;;;;;28.85;4.78;;;;;;;25.95;36.37;101604.97;5210907;28;20856;-51
2022/05/10 09:39:20;;;;;;;28.63;4.90;;;;;;;25.88;36.59;101601.56;5214057;28;20472;-50
2022/05/10 09:41:55;;;;;;;35.05;5.75;;;;;;;25.42;36.58;101543.56;5190383;28;20409;-50
2022/05/10 09:44:31;;;;;;;20.77;4.78;;;;;;;25.85;36.56;101605.53;5204724;28;20910;-49
2022/05/10 09:47:18;;;;;;;14.00;5.67;;;;;;;25.82;36.47;101597.06;5212951;28;20424;-52
2022/05/10 09:49:51;;;;;;;19.25;4.72;;;;;;;25.88;36.46;101596.13;5220707;28;20454;-47
2022/05/10 09:52:27;;;;;;;21.92;4.88;;;;;;;25.73;36.32;101567.59;5218002;28;20915;-49
2022/05/10 09:55:09;;;;;;;22.15;4.50;;;;;;;25.93;36.38;101588.16;5224244;28;20419;-54
2022/05/10 09:57:43;;;;;;;16.23;4.47;;;;;;;25.88;36.48;101604.25;5218421;28;20407;-49
2022/05/10 10:00:17;;;;;;;14.75;3.92;;;;;;;25.79;36.49;101597.50;5220487;28;20423;-51
2022/05/10 10:03:00;;;;;;;18.80;4.70;;;;;;;25.94;36.42;101608.75;5221391;28;20431;-52
2022/05/10 10:05:36;;;;;;;15.90;4.07;;;;;;;25.79;36.20;101562.31;5217904;28;20422;-50
2022/05/10 10:08:09;;;;;;;12.87;3.70;;;;;;;26.14;36.28;101611.94;5218387;28;20419;-48
2022/05/10 10:10:44;;;;;;;13.23;3.70;;;;;;;26.23;36.14;101598.84;5223071;28;20435;-47
2022/05/10 10:13:30;;;;;;;17.42;4.45;;;;;;;26.26;35.95;101609.22;5224357;28;20501;-51
2022/05/10 10:16:02;;;;;;;18.95;4.25;;;;;;;26.41;35.61;101606.03;5219772;28;20430;-48
2022/05/10 10:18:48;;;;;;;12.50;3.95;;;;;;;26.18;35.85;101569.78;5201693;28;20555;-46
2022/05/10 10:21:26;;;;;;;16.00;4.13;;;;;;;26.32;35.73;101612.88;5210046;28;20472;-48
2022/05/10 10:24:00;;;;;;;14.43;4.25;;;;;;;26.18;35.87;101606.88;5222878;28;20413;-49
2022/05/10 10:26:42;;;;;;;10.48;4.07;;;;;;;26.07;35.81;101611.22;5217892;28;20459;-49
2022/05/10 10:29:22;;;;;;;17.42;3.50;;;;;;;26.07;35.79;101604.97;5216601;28;20435;-49
2022/05/10 10:32:00;;;;;;;11.27;4.60;;;;;;;26.01;35.95;101601.31;5198445;28;22403;-46
2022/05/10 10:34:40;;;;;;;21.63;4.33;;;;;;;25.82;36.01;101597.88;5180896;28;20423;-47
2022/05/10 10:37:16;;;;;;;23.13;4.10;;;;;;;25.72;36.10;101609.25;5182594;28;20903;-47
2022/05/10 10:39:59;;;;;;;18.30;3.63;;;;;;;25.81;36.05;101603.53;5176820;28;20962;-49
2022/05/10 10:42:38;;;;;;;21.63;4.10;;;;;;;25.90;35.95;101594.03;5177557;28;20423;-48
2022/05/10 10:45:15;;;;;;;21.27;4.07;;;;;;;26.16;35.65;101595.44;5159463;28;20426;-46
2022/05/10 10:47:58;;;;;;;18.80;3.97;;;;;;;26.10;35.36;101558.50;5170427;28;20419;-48
2022/05/10 10:50:36;;;;;;;17.15;3.45;;;;;;;26.30;35.40;101593.34;5159566;28;20941;-48
2022/05/10 10:53:13;;;;;;;18.80;4.43;;;;;;;25.70;35.56;101513.97;5167878;28;20438;-49
2022/05/10 10:56:13;;;;;;;29.75;3.88;;;;;;;26.32;35.35;101585.78;5171873;28;20814;-50
2022/05/10 10:59:01;;;;;;;11.25;3.20;;;;;;;26.02;35.37;101543.44;5163402;28;20451;-47
2022/05/10 11:01:51;;;;;;;22.80;3.78;;;;;;;26.47;35.17;101615.09;5165991;28;20899;-50
2022/05/10 11:04:54;;;;;;;29.63;3.47;;;;;;;26.40;35.12;101599.81;5172669;28;20462;-52
2022/05/10 11:07:43;;;;;;;21.40;2.60;;;;;;;26.37;34.83;101566.97;5172060;28;20469;-49
2022/05/10 11:10:23;;;;;;;21.20;3.15;;;;;;;26.51;34.76;101584.66;5171616;28;20427;-48
2022/05/10 11:13:08;;;;;;;9.07;2.78;;;;;;;26.48;34.57;101562.56;5181498;28;20451;-46
2022/05/10 11:15:49;;;;;;;18.13;2.85;;;;;;;26.66;34.50;101598.53;5172407;28;20760;-46
2022/05/10 11:18:43;;;;;;;19.90;2.70;;;;;;;26.59;34.20;101573.44;5170608;28;20462;-49
2022/05/10 11:21:29;;;;;;;12.80;2.85;;;;;;;26.61;34.19;101570.50;5167305;28;20787;-50
2022/05/10 11:24:14;;;;;;;12.45;2.28;;;;;;;26.62;34.01;101585.69;5173461;28;20421;-48
2022/05/10 11:27:08;;;;;;;13.60;2.10;;;;;;;26.65;33.67;101586.00;5166844;28;20441;-50
2022/05/10 11:30:02;;;;;;;13.85;1.85;;;;;;;26.30;33.46;101539.19;5168215;28;20912;-47
2022/05/10 11:32:56;;;;;;;9.80;1.63;;;;;;;26.42;33.04;101564.38;5170196;28;20446;-49
2022/05/10 11:35:57;;;;;;;14.88;1.48;;;;;;;26.55;32.79;101590.41;5138931;28;20423;-51
2022/05/10 11:39:23;;;;;;;12.43;0.93;;;;;;;26.48;32.45;101598.63;5214582;28;20404;-49
2022/05/10 11:42:19;;;;;;;7.80;0.93;;;;;;;26.10;32.48;101555.78;5144339;28;20479;-51
2022/05/10 11:45:31;;;;;;;6.75;1.20;;;;;;;25.89;32.27;101543.66;5144828;28;20505;-52
2022/05/10 11:48:52;;;;;;;6.25;0.68;;;;;;;26.05;31.68;101597.09;5135097;28;20416;-49
2022/05/10 11:52:14;;;;;;;4.03;0.70;;;;;;;25.93;31.26;101602.50;5141951;28;20697;-50
2022/05/10 11:55:15;;;;;;;3.47;0.82;;;;;;;25.84;31.04;101605.78;5141310;28;20450;-50
2022/05/10 11:57:48;;;;;;;5.63;0.77;;;;;;;25.70;31.06;101600.53;5140162;28;20433;-52
2022/05/10 12:00:56;;;;;;;3.63;0.60;;;;;;;25.37;31.07;101562.38;5139449;28;20520;-47
2022/05/10 12:03:51;;;;;;;5.60;0.75;;;;;;;25.34;31.01;101585.28;5092389;28;20957;-51
2022/05/10 12:06:43;;;;;;;4.93;0.88;;;;;;;25.26;30.97;101588.31;5083916;28;20961;-48
2022/05/10 12:09:33;;;;;;;8.88;1.20;;;;;;;25.35;30.71;101586.09;5090605;28;20435;-50
2022/05/10 12:12:08;;;;;;;5.05;1.10;;;;;;;25.35;30.84;101591.50;5093333;28;20428;-49
2022/05/10 12:21:23;;;;;;;4.03;0.95;;;;;;;25.01;31.24;101588.41;5115684;28;20420;-49
2022/05/10 12:24:30;;;;;;;9.07;1.23;;;;;;;24.90;31.20;101589.16;5114669;28;20801;-46